createdAt,value
2023-04-12T00:00:46.292Z,179.97
2023-04-12T00:01:46.270Z,180.44
2023-04-12T00:02:46.363Z,180.83
2023-04-12T00:03:46.281Z,180.42
2023-04-12T00:04:46.298Z,180.01
2023-04-12T00:05:46.242Z,179.74
2023-04-12T00:06:46.272Z,181.03
2023-04-12T00:07:46.288Z,180.13
2023-04-12T00:08:46.262Z,180.36
2023-04-12T00:09:46.261Z,178.88
2023-04-12T00:10:46.264Z,180.46
2023-04-12T00:11:46.285Z,181.46
2023-04-12T00:12:46.301Z,180.28
2023-04-12T00:13:46.297Z,181.70
2023-04-12T00:14:46.295Z,180.29
2023-04-12T00:15:46.417Z,181.96
2023-04-12T00:16:46.305Z,180.79
2023-04-12T00:17:46.351Z,180.74
2023-04-12T00:18:46.315Z,179.91
2023-04-12T00:19:46.352Z,180.44
2023-04-12T00:20:46.398Z,179.75
2023-04-12T00:21:46.403Z,180.92
2023-04-12T00:22:46.403Z,181.11
2023-04-12T00:23:46.404Z,181.85
2023-04-12T00:24:46.418Z,181.23
2023-04-12T00:25:46.440Z,181.82
2023-04-12T00:26:46.442Z,182.32
2023-04-12T00:27:46.467Z,182.69
2023-04-12T00:28:46.442Z,181.98
2023-04-12T00:29:46.462Z,181.14
2023-04-12T00:30:46.472Z,182.31
2023-04-12T00:31:46.564Z,181.47
2023-04-12T00:32:46.501Z,181.92
2023-04-12T00:33:46.479Z,181.75
2023-04-12T00:34:46.481Z,181.36
2023-04-12T00:35:46.667Z,183.50
2023-04-12T00:36:46.484Z,181.66
2023-04-12T00:37:46.501Z,181.39
2023-04-12T00:38:46.513Z,181.92
2023-04-12T00:39:46.522Z,181.14
2023-04-12T00:40:46.517Z,180.87
2023-04-12T00:41:46.565Z,181.42
2023-04-12T00:42:46.526Z,181.39
2023-04-12T00:43:46.533Z,181.52
2023-04-12T00:44:46.560Z,180.92
2023-04-12T00:45:46.558Z,180.91
2023-04-12T00:46:46.654Z,180.79
2023-04-12T00:47:46.639Z,181.19
2023-04-12T00:48:46.572Z,180.85
2023-04-12T00:49:46.578Z,181.69
2023-04-12T00:50:46.602Z,180.70
2023-04-12T00:51:46.601Z,178.95
2023-04-12T00:52:46.584Z,178.92
2023-04-12T00:53:46.588Z,179.80
2023-04-12T00:54:46.603Z,177.91
2023-04-12T00:55:46.614Z,178.78
2023-04-12T00:56:46.595Z,177.81
2023-04-12T00:57:46.598Z,178.75
2023-04-12T00:58:46.610Z,178.41
2023-04-12T00:59:46.601Z,177.02
2023-04-12T01:00:46.649Z,178.13
2023-04-12T01:01:46.669Z,177.55
2023-04-12T01:02:46.796Z,178.69
2023-04-12T01:03:46.719Z,178.45
2023-04-12T01:04:46.629Z,177.04
2023-04-12T01:05:46.678Z,178.38
2023-04-12T01:06:46.688Z,178.09
2023-04-12T01:07:46.667Z,176.76
2023-04-12T01:08:46.675Z,176.16
2023-04-12T01:09:46.691Z,175.93
2023-04-12T01:10:46.694Z,176.27
2023-04-12T01:11:46.692Z,176.46
2023-04-12T01:12:46.698Z,175.95
2023-04-12T01:13:46.671Z,176.00
2023-04-12T01:14:46.665Z,175.99
2023-04-12T01:15:46.640Z,176.03
2023-04-12T01:16:46.707Z,176.00
2023-04-12T01:17:46.640Z,175.74
2023-04-12T01:18:46.534Z,175.98
2023-04-12T01:19:46.504Z,176.02
2023-04-12T01:20:46.476Z,175.97
2023-04-12T01:21:46.458Z,175.43
2023-04-12T01:22:46.429Z,174.64
2023-04-12T01:23:46.401Z,174.57
2023-04-12T01:24:46.365Z,173.98
2023-04-12T01:25:46.379Z,175.88
2023-04-12T01:26:46.322Z,174.08
2023-04-12T01:27:46.289Z,175.03
2023-04-12T01:28:46.269Z,173.95
2023-04-12T01:29:46.236Z,173.34
2023-04-12T01:30:46.205Z,173.94
2023-04-12T01:31:46.233Z,174.43
2023-04-12T01:32:46.183Z,175.31
2023-04-12T01:33:46.123Z,173.58
2023-04-12T01:34:46.111Z,174.75
2023-04-12T01:35:46.170Z,175.68
2023-04-12T01:36:46.127Z,174.57
2023-04-12T01:37:46.154Z,174.07
2023-04-12T01:38:46.151Z,176.10
2023-04-12T01:39:53.093Z,175.30
2023-04-12T01:40:46.139Z,175.33
2023-04-12T01:41:46.095Z,175.56
2023-04-12T01:42:46.077Z,175.98
2023-04-12T01:43:46.060Z,177.05
2023-04-12T01:44:46.023Z,177.12
2023-04-12T01:45:46.011Z,177.76
2023-04-12T01:46:45.971Z,175.42
2023-04-12T01:47:45.988Z,175.72
2023-04-12T01:48:45.929Z,176.26
2023-04-12T01:49:45.890Z,176.69
2023-04-12T01:50:45.874Z,175.14
2023-04-12T01:51:45.855Z,175.64
2023-04-12T01:52:45.811Z,175.69
2023-04-12T01:53:45.777Z,174.88
2023-04-12T01:54:45.761Z,175.22
2023-04-12T01:55:45.766Z,174.03
2023-04-12T01:56:45.720Z,174.15
2023-04-12T01:57:45.689Z,177.01
2023-04-12T01:58:45.643Z,175.08
2023-04-12T01:59:45.637Z,174.14
2023-04-12T02:00:45.676Z,174.74
2023-04-12T02:01:45.620Z,176.59
2023-04-12T02:02:45.667Z,175.49
2023-04-12T02:03:45.662Z,175.70
2023-04-12T02:04:45.513Z,176.22
2023-04-12T02:05:45.486Z,176.62
2023-04-12T02:06:45.472Z,176.51
2023-04-12T02:07:45.447Z,175.88
2023-04-12T02:08:45.426Z,175.44
2023-04-12T02:09:45.399Z,175.26
2023-04-12T02:10:45.382Z,175.80
2023-04-12T02:11:45.360Z,174.93
2023-04-12T02:12:45.373Z,175.93
2023-04-12T02:13:45.322Z,175.81
2023-04-12T02:14:45.303Z,174.89
2023-04-12T02:15:45.275Z,176.29
2023-04-12T02:16:45.293Z,174.85
2023-04-12T02:17:45.263Z,176.87
2023-04-12T02:18:45.207Z,174.44
2023-04-12T02:19:45.205Z,175.38
2023-04-12T02:20:45.206Z,175.97
2023-04-12T02:21:45.161Z,172.98
2023-04-12T02:22:45.127Z,175.56
2023-04-12T02:23:45.113Z,175.01
2023-04-12T02:24:45.105Z,174.72
2023-04-12T02:25:45.111Z,173.82
2023-04-12T02:26:45.120Z,172.56
2023-04-12T02:27:45.158Z,173.14
2023-04-12T02:28:45.150Z,172.89
2023-04-12T02:29:45.151Z,172.72
2023-04-12T02:30:45.189Z,174.10
2023-04-12T02:31:45.185Z,172.99
2023-04-12T02:32:45.254Z,174.80
2023-04-12T02:33:45.192Z,174.82
2023-04-12T02:34:45.209Z,174.78
2023-04-12T02:35:45.286Z,174.51
2023-04-12T02:36:45.227Z,175.59
2023-04-12T02:37:45.254Z,173.65
2023-04-12T02:38:45.259Z,172.88
2023-04-12T02:39:45.267Z,172.99
2023-04-12T02:40:45.284Z,172.79
2023-04-12T02:41:45.273Z,174.04
2023-04-12T02:42:45.292Z,173.72
2023-04-12T02:43:45.307Z,173.57
2023-04-12T02:44:45.305Z,173.17
2023-04-12T02:45:45.364Z,175.26
2023-04-12T02:46:45.350Z,174.45
2023-04-12T02:47:45.364Z,173.83
2023-04-12T02:48:45.346Z,173.27
2023-04-12T02:49:45.362Z,174.20
2023-04-12T02:50:45.399Z,174.78
2023-04-12T02:51:45.402Z,174.29
2023-04-12T02:52:45.410Z,173.34
2023-04-12T02:53:45.432Z,173.60
2023-04-12T02:54:45.427Z,173.38
2023-04-12T02:55:45.459Z,173.93
2023-04-12T02:56:45.436Z,173.98
2023-04-12T02:57:45.416Z,172.95
2023-04-12T02:58:45.394Z,173.24
2023-04-12T02:59:45.388Z,173.39
2023-04-12T03:00:45.372Z,173.26
2023-04-12T03:01:45.408Z,171.73
2023-04-12T03:02:45.421Z,172.27
2023-04-12T03:03:45.371Z,172.27
2023-04-12T03:04:45.284Z,171.88
2023-04-12T03:05:45.270Z,172.37
2023-04-12T03:06:45.247Z,170.22
2023-04-12T03:07:45.233Z,170.07
2023-04-12T03:08:45.201Z,169.89
2023-04-12T03:09:45.180Z,168.09
2023-04-12T03:10:45.164Z,169.21
2023-04-12T03:11:45.149Z,168.00
2023-04-12T03:12:45.139Z,167.90
2023-04-12T03:13:45.120Z,168.30
2023-04-12T03:14:45.111Z,169.11
2023-04-12T03:15:45.107Z,168.87
2023-04-12T03:16:45.056Z,167.95
2023-04-12T03:17:45.141Z,168.81
2023-04-12T03:18:44.992Z,166.41
2023-04-12T03:19:44.986Z,166.01
2023-04-12T03:20:47.349Z,166.11
2023-04-12T03:21:44.942Z,168.02
2023-04-12T03:22:44.921Z,168.32
2023-04-12T03:23:44.898Z,167.27
2023-04-12T03:24:44.884Z,166.86
2023-04-12T03:25:44.880Z,166.92
2023-04-12T03:26:44.854Z,165.17
2023-04-12T03:27:44.849Z,165.98
2023-04-12T03:28:44.801Z,167.84
2023-04-12T03:29:44.789Z,166.92
2023-04-12T03:30:44.813Z,166.06
2023-04-12T03:31:44.751Z,167.83
2023-04-12T03:32:44.758Z,166.59
2023-04-12T03:33:44.706Z,166.97
2023-04-12T03:34:44.707Z,167.33
2023-04-12T03:35:44.748Z,166.55
2023-04-12T03:36:44.695Z,166.66
2023-04-12T03:37:44.652Z,166.75
2023-04-12T03:38:44.622Z,167.31
2023-04-12T03:39:44.602Z,166.75
2023-04-12T03:40:44.606Z,168.26
2023-04-12T03:41:44.603Z,168.02
2023-04-12T03:42:44.556Z,166.81
2023-04-12T03:43:44.533Z,166.71
2023-04-12T03:44:44.505Z,164.41
2023-04-12T03:45:44.509Z,166.68
2023-04-12T03:46:44.522Z,166.79
2023-04-12T03:47:44.492Z,166.87
2023-04-12T03:48:44.443Z,168.00
2023-04-12T03:49:46.263Z,166.99
2023-04-12T03:50:45.417Z,167.03
2023-04-12T03:51:44.392Z,167.10
2023-04-12T03:52:44.383Z,167.67
2023-04-12T03:53:44.357Z,167.12
2023-04-12T03:54:44.331Z,167.01
2023-04-12T03:55:44.308Z,167.05
2023-04-12T03:56:46.037Z,166.71
2023-04-12T03:57:44.300Z,167.02
2023-04-12T03:58:44.282Z,167.89
2023-04-12T03:59:44.271Z,168.28
2023-04-12T04:00:44.226Z,167.97
2023-04-12T04:01:44.270Z,168.99
2023-04-12T04:02:44.305Z,168.15
2023-04-12T04:03:44.662Z,169.43
2023-04-12T04:04:44.196Z,169.75
2023-04-12T04:05:44.152Z,169.95
2023-04-12T04:06:44.129Z,169.54
2023-04-12T04:07:44.107Z,169.66
2023-04-12T04:08:44.073Z,169.55
2023-04-12T04:09:44.089Z,170.24
2023-04-12T04:10:44.104Z,169.37
2023-04-12T04:11:44.120Z,170.35
2023-04-12T04:12:44.141Z,169.17
2023-04-12T04:13:44.172Z,169.46
2023-04-12T04:14:44.359Z,170.82
2023-04-12T04:15:44.153Z,169.67
2023-04-12T04:16:44.201Z,171.03
2023-04-12T04:17:44.225Z,171.25
2023-04-12T04:18:44.190Z,172.65
2023-04-12T04:19:44.194Z,171.79
2023-04-12T04:20:44.237Z,172.12
2023-04-12T04:21:44.224Z,173.48
2023-04-12T04:22:44.235Z,172.95
2023-04-12T04:23:44.246Z,170.35
2023-04-12T04:24:44.262Z,171.27
2023-04-12T04:25:44.261Z,173.76
2023-04-12T04:26:44.282Z,170.80
2023-04-12T04:27:44.304Z,172.81
2023-04-12T04:28:44.305Z,173.19
2023-04-12T04:29:44.385Z,170.96
2023-04-12T04:30:44.312Z,172.94
2023-04-12T04:31:44.325Z,172.64
2023-04-12T04:32:44.386Z,173.38
2023-04-12T04:33:44.320Z,173.17
2023-04-12T04:34:44.347Z,172.81
2023-04-12T04:35:44.418Z,173.83
2023-04-12T04:36:44.361Z,174.60
2023-04-12T04:37:44.376Z,174.82
2023-04-12T04:38:44.390Z,174.36
2023-04-12T04:39:44.386Z,177.73
2023-04-12T04:40:44.413Z,176.27
2023-04-12T04:41:44.435Z,175.32
2023-04-12T04:42:44.504Z,173.89
2023-04-12T04:43:44.531Z,174.69
2023-04-12T04:44:44.598Z,175.44
2023-04-12T04:45:44.688Z,175.41
2023-04-12T04:46:44.619Z,176.79
2023-04-12T04:47:44.672Z,177.52
2023-04-12T04:48:44.656Z,178.33
2023-04-12T04:49:44.658Z,177.52
2023-04-12T04:50:44.667Z,177.69
2023-04-12T04:51:44.688Z,178.49
2023-04-12T04:52:44.704Z,178.24
2023-04-12T04:53:44.720Z,179.27
2023-04-12T04:54:44.696Z,178.22
2023-04-12T04:55:44.705Z,179.61
2023-04-12T04:56:44.736Z,178.99
2023-04-12T04:57:44.732Z,179.50
2023-04-12T04:58:44.738Z,180.09
2023-04-12T04:59:44.753Z,180.74
2023-04-12T05:00:44.766Z,181.18
2023-04-12T05:01:44.954Z,182.99
2023-04-12T05:02:44.841Z,183.02
2023-04-12T05:03:44.880Z,183.31
2023-04-12T05:04:44.797Z,183.02
2023-04-12T05:05:44.796Z,184.46
2023-04-12T05:06:44.808Z,181.67
2023-04-12T05:07:44.815Z,182.08
2023-04-12T05:08:44.848Z,183.10
2023-04-12T05:09:44.886Z,183.46
2023-04-12T05:10:44.921Z,184.07
2023-04-12T05:11:44.966Z,183.02
2023-04-12T05:12:45.000Z,183.16
2023-04-12T05:13:45.029Z,184.09
2023-04-12T05:14:48.003Z,185.00
2023-04-12T05:15:45.031Z,185.05
2023-04-12T05:16:45.050Z,184.65
2023-04-12T05:17:45.072Z,183.21
2023-04-12T05:18:44.979Z,183.59
2023-04-12T05:19:44.971Z,185.18
2023-04-12T05:20:44.935Z,185.43
2023-04-12T05:21:44.917Z,185.91
2023-04-12T05:22:44.909Z,183.71
2023-04-12T05:23:44.878Z,183.76
2023-04-12T05:24:44.885Z,183.61
2023-04-12T05:25:44.851Z,184.39
2023-04-12T05:26:44.845Z,185.00
2023-04-12T05:27:44.864Z,185.45
2023-04-12T05:28:44.790Z,185.33
2023-04-12T05:29:44.776Z,185.38
2023-04-12T05:30:44.804Z,185.60
2023-04-12T05:31:44.745Z,185.74
2023-04-12T05:32:44.764Z,185.80
2023-04-12T05:33:44.723Z,189.14
2023-04-12T05:34:44.686Z,188.79
2023-04-12T05:35:44.699Z,189.71
2023-04-12T05:36:44.708Z,193.18
2023-04-12T05:37:44.627Z,194.20
2023-04-12T05:38:44.617Z,198.78
2023-04-12T05:39:44.597Z,201.52
2023-04-12T05:40:44.553Z,205.14
2023-04-12T05:41:44.600Z,210.01
2023-04-12T05:42:44.528Z,214.63
2023-04-12T05:43:44.496Z,217.60
2023-04-12T05:44:44.472Z,217.80
2023-04-12T05:45:44.455Z,218.94
2023-04-12T05:46:44.481Z,221.10
2023-04-12T05:47:44.438Z,227.10
2023-04-12T05:48:44.418Z,237.40
2023-04-12T05:49:44.455Z,244.96
2023-04-12T05:50:44.347Z,260.02
2023-04-12T05:51:44.311Z,268.84
2023-04-12T05:52:44.314Z,265.90
2023-04-12T05:53:44.290Z,258.03
2023-04-12T05:54:44.246Z,248.96
2023-04-12T05:55:44.251Z,249.02
2023-04-12T05:56:44.255Z,247.91
2023-04-12T05:57:44.195Z,248.77
2023-04-12T05:58:44.224Z,249.88
2023-04-12T05:59:44.161Z,248.70
2023-04-12T06:00:44.149Z,249.17
2023-04-12T06:01:44.103Z,250.00
2023-04-12T06:02:44.235Z,250.00
2023-04-12T06:03:44.117Z,250.09
2023-04-12T06:04:50.139Z,250.20
2023-04-12T06:05:45.078Z,250.31
2023-04-12T06:06:43.940Z,251.68
2023-04-12T06:07:43.905Z,254.47
2023-04-12T06:08:43.897Z,258.76
2023-04-12T06:09:43.863Z,266.60
2023-04-12T06:10:43.831Z,257.82
2023-04-12T06:11:43.802Z,250.00
2023-04-12T06:12:43.781Z,249.42
2023-04-12T06:13:43.748Z,248.98
2023-04-12T06:14:43.712Z,249.31
2023-04-12T06:15:43.702Z,248.97
2023-04-12T06:16:43.657Z,248.72
2023-04-12T06:17:43.668Z,248.96
2023-04-12T06:18:43.593Z,248.88
2023-04-12T06:19:43.551Z,249.16
2023-04-12T06:20:43.541Z,249.44
2023-04-12T06:21:43.491Z,248.52
2023-04-12T06:22:43.477Z,248.15
2023-04-12T06:23:43.500Z,247.94
2023-04-12T06:24:43.453Z,248.76
2023-04-12T06:25:43.424Z,248.29
2023-04-12T06:26:43.499Z,248.78
2023-04-12T06:27:43.356Z,248.43
2023-04-12T06:28:43.283Z,246.55
2023-04-12T06:29:43.246Z,245.79
2023-04-12T06:30:43.216Z,245.17
2023-04-12T06:31:43.246Z,244.53
2023-04-12T06:32:43.177Z,245.38
2023-04-12T06:33:43.203Z,244.49
2023-04-12T06:34:43.092Z,241.02
2023-04-12T06:35:43.083Z,238.36
2023-04-12T06:36:43.017Z,237.70
2023-04-12T06:37:42.984Z,237.69
2023-04-12T06:38:42.948Z,237.26
2023-04-12T06:39:42.923Z,237.40
2023-04-12T06:40:42.958Z,237.15
2023-04-12T06:41:42.859Z,235.96
2023-04-12T06:42:42.859Z,235.67
2023-04-12T06:43:42.864Z,235.55
2023-04-12T06:44:42.835Z,234.16
2023-04-12T06:45:42.820Z,234.84
2023-04-12T06:46:42.964Z,234.71
2023-04-12T06:47:42.825Z,234.01
2023-04-12T06:48:42.750Z,234.96
2023-04-12T06:49:42.868Z,234.75
2023-04-12T06:50:42.690Z,235.12
2023-04-12T06:51:42.677Z,235.15
2023-04-12T06:52:42.841Z,234.14
2023-04-12T06:53:42.661Z,225.80
2023-04-12T06:54:42.630Z,205.84
2023-04-12T06:55:42.601Z,191.55
2023-04-12T06:56:42.568Z,176.64
2023-04-12T06:57:42.535Z,159.11
2023-04-12T06:58:42.509Z,149.85
2023-04-12T06:59:42.475Z,125.61
2023-04-12T07:00:42.582Z,113.15
2023-04-12T07:01:43.619Z,106.25
2023-04-12T07:02:42.619Z,98.38
2023-04-12T07:03:42.493Z,87.05
2023-04-12T07:04:42.346Z,79.01
2023-04-12T07:05:42.347Z,76.98
2023-04-12T07:06:42.351Z,79.80
2023-04-12T07:07:42.317Z,82.69
2023-04-12T07:08:42.321Z,79.32
2023-04-12T07:09:42.295Z,77.81
2023-04-12T07:10:42.261Z,77.36
2023-04-12T07:11:42.229Z,76.01
2023-04-12T07:12:42.229Z,75.94
2023-04-12T07:13:42.224Z,69.81
2023-04-12T07:14:44.092Z,66.32
2023-04-12T07:15:42.281Z,64.09
2023-04-12T07:16:42.298Z,61.76
2023-04-12T07:17:42.252Z,57.00
2023-04-12T07:18:42.225Z,53.48
2023-04-12T07:19:42.305Z,52.66
2023-04-12T07:20:42.157Z,52.87
2023-04-12T07:21:42.243Z,52.88
2023-04-12T07:22:42.133Z,53.25
2023-04-12T07:23:42.038Z,55.05
2023-04-12T07:24:42.024Z,50.78
2023-04-12T07:25:42.066Z,51.40
2023-04-12T07:26:41.945Z,52.34
2023-04-12T07:27:41.908Z,46.23
2023-04-12T07:28:41.916Z,49.40
2023-04-12T07:29:41.848Z,54.62
2023-04-12T07:30:41.822Z,62.79
2023-04-12T07:31:41.850Z,72.44
2023-04-12T07:32:41.833Z,76.90
2023-04-12T07:33:43.164Z,81.71
2023-04-12T07:34:41.801Z,88.77
2023-04-12T07:35:41.710Z,94.22
2023-04-12T07:36:41.633Z,99.31
2023-04-12T07:37:41.798Z,104.33
2023-04-12T07:38:41.557Z,112.30
2023-04-12T07:39:41.535Z,118.48
2023-04-12T07:40:41.464Z,126.32
2023-04-12T07:41:41.435Z,135.73
2023-04-12T07:42:41.429Z,143.96
2023-04-12T07:43:41.357Z,151.74
2023-04-12T07:44:41.338Z,159.66
2023-04-12T07:45:41.283Z,168.61
2023-04-12T07:46:41.291Z,175.71
2023-04-12T07:47:41.264Z,179.24
2023-04-12T07:48:41.233Z,184.39
2023-04-12T07:49:41.136Z,188.60
2023-04-12T07:50:41.115Z,192.70
2023-04-12T07:51:41.069Z,197.22
2023-04-12T07:52:41.042Z,197.76
2023-04-12T07:53:41.021Z,198.52
2023-04-12T07:54:41.013Z,199.20
2023-04-12T07:55:41.176Z,202.46
2023-04-12T07:56:40.993Z,203.70
2023-04-12T07:57:40.960Z,202.01
2023-04-12T07:58:40.926Z,198.62
2023-04-12T07:59:40.916Z,195.23
2023-04-12T08:00:41.033Z,194.77
2023-04-12T08:01:40.862Z,196.63
2023-04-12T08:02:40.909Z,192.30
2023-04-12T08:03:40.857Z,188.22
2023-04-12T08:04:40.736Z,187.43
2023-04-12T08:05:40.741Z,186.07
2023-04-12T08:06:40.655Z,182.99
2023-04-12T08:07:40.639Z,186.11
2023-04-12T08:08:40.653Z,187.62
2023-04-12T08:09:40.658Z,186.59
2023-04-12T08:10:40.665Z,184.71
2023-04-12T08:11:40.699Z,183.22
2023-04-12T08:12:40.729Z,188.37
2023-04-12T08:13:40.811Z,188.90
2023-04-12T08:14:41.048Z,189.69
2023-04-12T08:15:40.758Z,191.72
2023-04-12T08:16:40.877Z,191.69
2023-04-12T08:17:40.795Z,191.77
2023-04-12T08:18:40.764Z,191.85
2023-04-12T08:19:40.662Z,192.13
2023-04-12T08:20:40.627Z,193.07
2023-04-12T08:21:40.572Z,194.66
2023-04-12T08:22:40.537Z,195.04
2023-04-12T08:23:40.649Z,195.56
2023-04-12T08:24:40.538Z,197.91
2023-04-12T08:25:40.460Z,198.51
2023-04-12T08:26:41.268Z,198.81
2023-04-12T08:27:40.449Z,200.17
2023-04-12T08:28:40.347Z,199.79
2023-04-12T08:29:40.413Z,197.59
2023-04-12T08:30:40.415Z,194.63
2023-04-12T08:31:40.482Z,191.18
2023-04-12T08:32:40.752Z,191.29
2023-04-12T08:33:40.508Z,189.95
2023-04-12T08:34:40.500Z,192.69
2023-04-12T08:35:40.536Z,195.96
2023-04-12T08:36:40.596Z,196.95
2023-04-12T08:37:40.562Z,198.48
2023-04-12T08:38:45.818Z,199.49
2023-04-12T08:39:41.565Z,199.62
2023-04-12T08:40:40.518Z,200.00
2023-04-12T08:41:40.479Z,200.33
2023-04-12T08:42:40.438Z,200.08
2023-04-12T08:43:40.429Z,199.40
2023-04-12T08:44:40.375Z,196.11
2023-04-12T08:45:40.331Z,190.92
2023-04-12T08:46:40.316Z,187.86
2023-04-12T08:47:40.274Z,179.38
2023-04-12T08:48:40.204Z,180.01
2023-04-12T08:49:40.212Z,176.65
2023-04-12T08:50:40.137Z,179.15
2023-04-12T08:51:40.086Z,179.21
2023-04-12T08:52:40.050Z,171.79
2023-04-12T08:53:39.994Z,170.63
2023-04-12T08:54:39.975Z,165.21
2023-04-12T08:55:39.943Z,160.89
2023-04-12T08:56:39.888Z,156.75
2023-04-12T08:57:39.827Z,153.46
2023-04-12T08:58:39.790Z,151.16
2023-04-12T08:59:39.785Z,150.63
2023-04-12T09:00:39.734Z,150.00
2023-04-12T09:01:39.825Z,148.38
2023-04-12T09:02:39.780Z,149.47
2023-04-12T09:03:39.960Z,150.55
2023-04-12T09:04:39.696Z,150.09
2023-04-12T09:05:39.573Z,148.75
2023-04-12T09:06:39.536Z,149.41
2023-04-12T09:07:39.496Z,150.08
2023-04-12T09:08:39.466Z,149.20
2023-04-12T09:09:39.423Z,148.13
2023-04-12T09:10:39.427Z,147.79
2023-04-12T09:11:39.372Z,148.87
2023-04-12T09:12:39.320Z,149.13
2023-04-12T09:13:39.302Z,148.94
2023-04-12T09:14:39.262Z,148.51
2023-04-12T09:15:39.223Z,146.64
2023-04-12T09:16:39.303Z,146.29
2023-04-12T09:17:39.280Z,143.98
2023-04-12T09:18:39.146Z,143.93
2023-04-12T09:19:39.090Z,143.62
2023-04-12T09:20:39.097Z,144.41
2023-04-12T09:21:39.026Z,145.02
2023-04-12T09:22:38.984Z,144.67
2023-04-12T09:23:38.950Z,145.37
2023-04-12T09:24:38.956Z,147.53
2023-04-12T09:25:38.908Z,145.73
2023-04-12T09:26:38.884Z,145.85
2023-04-12T09:27:38.805Z,143.32
2023-04-12T09:28:38.761Z,142.70
2023-04-12T09:29:38.792Z,143.76
2023-04-12T09:30:38.839Z,146.83
2023-04-12T09:31:38.786Z,144.49
2023-04-12T09:32:38.714Z,144.59
2023-04-12T09:33:38.641Z,144.61
2023-04-12T09:34:38.592Z,145.08
2023-04-12T09:35:38.621Z,144.43
2023-04-12T09:36:38.503Z,143.33
2023-04-12T09:37:38.519Z,144.03
2023-04-12T09:38:38.646Z,143.75
2023-04-12T09:39:40.113Z,141.97
2023-04-12T09:40:38.468Z,142.70
2023-04-12T09:41:38.353Z,141.33
2023-04-12T09:42:38.410Z,142.24
2023-04-12T09:43:38.287Z,144.93
2023-04-12T09:44:38.261Z,145.41
2023-04-12T09:45:38.247Z,147.80
2023-04-12T09:46:38.212Z,151.41
2023-04-12T09:47:38.168Z,153.06
2023-04-12T09:48:38.106Z,153.22
2023-04-12T09:49:38.213Z,154.25
2023-04-12T09:50:38.066Z,154.03
2023-04-12T09:51:38.063Z,151.35
2023-04-12T09:52:38.165Z,152.93
2023-04-12T09:53:38.051Z,155.72
2023-04-12T09:54:38.142Z,156.35
2023-04-12T09:55:37.956Z,158.57
2023-04-12T09:56:37.984Z,160.94
2023-04-12T09:57:38.017Z,160.76
2023-04-12T09:58:37.981Z,161.50
2023-04-12T09:59:38.052Z,162.59
2023-04-12T10:00:38.042Z,161.87
2023-04-12T10:01:38.106Z,161.42
2023-04-12T10:02:38.193Z,159.52
2023-04-12T10:03:38.176Z,161.81
2023-04-12T10:04:38.101Z,164.19
2023-04-12T10:05:38.060Z,163.35
2023-04-12T10:06:38.032Z,160.19
2023-04-12T10:07:38.038Z,162.55
2023-04-12T10:08:38.052Z,164.50
2023-04-12T10:09:38.066Z,167.20
2023-04-12T10:10:38.082Z,168.20
2023-04-12T10:11:38.099Z,170.07
2023-04-12T10:12:38.138Z,169.95
2023-04-12T10:13:38.058Z,168.17
2023-04-12T10:14:38.039Z,168.13
2023-04-12T10:15:38.087Z,168.68
2023-04-12T10:16:38.146Z,168.69
2023-04-12T10:17:38.185Z,166.79
2023-04-12T10:18:38.137Z,166.68
2023-04-12T10:19:38.067Z,163.97
2023-04-12T10:20:38.070Z,163.01
2023-04-12T10:21:37.998Z,160.13
2023-04-12T10:22:37.950Z,162.32
2023-04-12T10:23:37.979Z,160.50
2023-04-12T10:24:37.920Z,160.00
2023-04-12T10:25:37.828Z,158.14
2023-04-12T10:26:37.800Z,158.21
2023-04-12T10:27:37.763Z,158.16
2023-04-12T10:28:37.824Z,156.49
2023-04-12T10:29:37.713Z,153.42
2023-04-12T10:30:37.669Z,154.63
2023-04-12T10:31:37.756Z,155.28
2023-04-12T10:32:37.727Z,154.59
2023-04-12T10:33:37.634Z,154.99
2023-04-12T10:34:37.568Z,155.31
2023-04-12T10:35:37.616Z,157.71
2023-04-12T10:36:37.634Z,157.86
2023-04-12T10:37:37.604Z,157.95
2023-04-12T10:38:37.569Z,158.40
2023-04-12T10:39:37.573Z,159.88
2023-04-12T10:40:37.504Z,162.95
2023-04-12T10:41:37.494Z,167.63
2023-04-12T10:42:37.379Z,170.55
2023-04-12T10:43:37.348Z,169.51
2023-04-12T10:44:37.327Z,171.45
2023-04-12T10:45:37.362Z,173.56
2023-04-12T10:46:37.540Z,174.60
2023-04-12T10:47:37.443Z,175.31
2023-04-12T10:48:37.427Z,174.80
2023-04-12T10:49:37.460Z,176.77
2023-04-12T10:50:37.498Z,179.95
2023-04-12T10:51:37.555Z,179.96
2023-04-12T10:52:37.557Z,180.99
2023-04-12T10:53:37.663Z,180.81
2023-04-12T10:54:37.557Z,179.57
2023-04-12T10:55:37.530Z,181.00
2023-04-12T10:56:37.513Z,179.68
2023-04-12T10:57:37.430Z,178.30
2023-04-12T10:58:37.383Z,177.85
2023-04-12T10:59:47.263Z,176.67
2023-04-12T11:00:38.423Z,180.53
2023-04-12T11:01:38.916Z,181.04
2023-04-12T11:02:37.321Z,181.36
2023-04-12T11:03:37.304Z,181.94
2023-04-12T11:04:37.347Z,180.23
2023-04-12T11:05:37.153Z,181.73
2023-04-12T11:06:37.091Z,181.36
2023-04-12T11:07:37.061Z,182.38
2023-04-12T11:08:37.036Z,183.44
2023-04-12T11:09:37.089Z,181.14
2023-04-12T11:10:37.246Z,180.74
2023-04-12T11:11:37.155Z,178.07
2023-04-12T11:12:37.176Z,179.94
2023-04-12T11:13:37.261Z,178.61
2023-04-12T11:14:37.254Z,178.45
2023-04-12T11:15:37.305Z,173.98
2023-04-12T11:16:37.325Z,169.68
2023-04-12T11:17:37.997Z,170.66
2023-04-12T11:18:37.473Z,168.41
2023-04-12T11:19:37.453Z,165.19
2023-04-12T11:20:37.455Z,167.12
2023-04-12T11:21:37.350Z,169.92
2023-04-12T11:22:37.393Z,173.16
2023-04-12T11:23:37.396Z,176.58
2023-04-12T11:24:37.465Z,177.95
2023-04-12T11:25:37.611Z,175.60
2023-04-12T11:26:37.599Z,177.62
2023-04-12T11:27:37.606Z,180.09
2023-04-12T11:28:37.528Z,180.20
2023-04-12T11:29:37.434Z,180.51
2023-04-12T11:30:37.409Z,179.88
2023-04-12T11:31:37.426Z,180.27
2023-04-12T11:32:37.383Z,181.74
2023-04-12T11:33:37.354Z,185.97
2023-04-12T11:34:37.258Z,194.13
2023-04-12T11:35:37.187Z,208.54
2023-04-12T11:36:37.132Z,214.29
2023-04-12T11:37:37.087Z,218.26
2023-04-12T11:38:37.046Z,220.06
2023-04-12T11:39:37.009Z,221.57
2023-04-12T11:40:37.002Z,212.90
2023-04-12T11:41:37.060Z,197.02
2023-04-12T11:42:37.072Z,187.81
2023-04-12T11:43:37.181Z,183.06
2023-04-12T11:44:54.466Z,179.65
2023-04-12T11:45:38.112Z,178.93
2023-04-12T11:46:37.083Z,174.59
2023-04-12T11:47:37.050Z,171.38
2023-04-12T11:48:36.986Z,169.69
2023-04-12T11:49:36.945Z,168.38
2023-04-12T11:50:36.917Z,165.96
2023-04-12T11:51:36.890Z,161.12
2023-04-12T11:52:36.861Z,157.38
2023-04-12T11:53:36.828Z,157.79
2023-04-12T11:54:36.776Z,157.95
2023-04-12T11:55:36.745Z,155.01
2023-04-12T11:56:36.872Z,154.54
2023-04-12T11:57:36.810Z,151.58
2023-04-12T11:58:36.863Z,150.32
2023-04-12T11:59:36.875Z,150.47
2023-04-12T12:00:36.902Z,149.69
2023-04-12T12:01:36.973Z,147.31
2023-04-12T12:02:43.562Z,147.43
2023-04-12T12:03:38.073Z,147.17
2023-04-12T12:04:37.309Z,145.00
2023-04-12T12:05:37.566Z,142.20
2023-04-12T12:06:37.332Z,140.13
2023-04-12T12:07:36.808Z,138.05
2023-04-12T12:08:36.719Z,138.32
2023-04-12T12:09:36.670Z,136.13
2023-04-12T12:11:36.710Z,137.09
2023-04-12T12:12:36.626Z,136.90
2023-04-12T12:13:36.521Z,135.31
2023-04-12T12:14:36.574Z,136.49
2023-04-12T12:15:36.633Z,137.21
2023-04-12T12:16:36.539Z,136.19
2023-04-12T12:17:36.642Z,135.92
2023-04-12T12:18:36.669Z,133.48
2023-04-12T12:19:36.668Z,133.47
2023-04-12T12:20:36.641Z,131.82
2023-04-12T12:21:36.656Z,129.86
2023-04-12T12:22:36.605Z,129.68
2023-04-12T12:23:36.630Z,129.43
2023-04-12T12:24:40.479Z,128.27
2023-04-12T12:25:37.536Z,128.51
2023-04-12T12:26:36.464Z,128.48
2023-04-12T12:27:36.487Z,128.07
2023-04-12T12:28:36.406Z,127.27
2023-04-12T12:29:36.342Z,125.08
2023-04-12T12:30:36.316Z,125.66